sensor_id;sensor_type;location;lat;lon;timestamp;pressure;altitude;pressure_sealevel;temperature;humidity
75609;BME280;64194;51.044;13.780;2022-11-18T00:02:55;98770.41;;;6.72;78.26
75609;BME280;64194;51.044;13.780;2022-11-18T00:06:57;98774.44;;;6.65;78.99
75609;BME280;64194;51.044;13.780;2022-11-18T00:11:07;98769.28;;;6.63;78.93
75609;BME280;64194;51.044;13.780;2022-11-18T00:15:09;98776.25;;;6.64;79.24
75609;BME280;64194;51.044;13.780;2022-11-18T00:19:10;98769.03;;;6.66;79.05
75609;BME280;64194;51.044;13.780;2022-11-18T00:23:12;98770.13;;;6.64;78.88
75609;BME280;64194;51.044;13.780;2022-11-18T00:27:14;98769.28;;;6.63;78.73
75609;BME280;64194;51.044;13.780;2022-11-18T00:31:15;98762.72;;;6.56;79.54
75609;BME280;64194;51.044;13.780;2022-11-18T00:35:17;98765.69;;;6.64;79.17
75609;BME280;64194;51.044;13.780;2022-11-18T00:39:19;98766.72;;;6.49;79.75
75609;BME280;64194;51.044;13.780;2022-11-18T00:43:22;98772.00;;;6.49;80.44
75609;BME280;64194;51.044;13.780;2022-11-18T00:47:24;98774.97;;;6.57;79.98
75609;BME280;64194;51.044;13.780;2022-11-18T00:51:25;98776.16;;;6.53;79.94
75609;BME280;64194;51.044;13.780;2022-11-18T00:55:27;98779.41;;;6.57;80.16
75609;BME280;64194;51.044;13.780;2022-11-18T00:59:28;98780.06;;;6.48;80.39
75609;BME280;64194;51.044;13.780;2022-11-18T01:03:30;98778.97;;;6.50;80.91
75609;BME280;64194;51.044;13.780;2022-11-18T01:07:32;98784.78;;;6.55;80.81
75609;BME280;64194;51.044;13.780;2022-11-18T01:11:33;98782.78;;;6.46;82.79
75609;BME280;64194;51.044;13.780;2022-11-18T01:15:56;98784.03;;;6.28;85.21
75609;BME280;64194;51.044;13.780;2022-11-18T01:19:58;98783.50;;;6.23;85.89
75609;BME280;64194;51.044;13.780;2022-11-18T01:24:00;98782.25;;;6.16;86.09
75609;BME280;64194;51.044;13.780;2022-11-18T01:28:02;98771.47;;;6.19;87.53
75609;BME280;64194;51.044;13.780;2022-11-18T01:32:04;98761.69;;;6.21;87.63
75609;BME280;64194;51.044;13.780;2022-11-18T01:36:26;98766.13;;;6.20;86.65
75609;BME280;64194;51.044;13.780;2022-11-18T01:40:28;98759.97;;;6.07;87.54
75609;BME280;64194;51.044;13.780;2022-11-18T01:44:55;98765.06;;;6.10;87.70
75609;BME280;64194;51.044;13.780;2022-11-18T01:49:05;98766.31;;;6.05;87.46
75609;BME280;64194;51.044;13.780;2022-11-18T01:53:12;98768.22;;;6.15;87.09
75609;BME280;64194;51.044;13.780;2022-11-18T01:57:19;98765.47;;;6.17;86.18
75609;BME280;64194;51.044;13.780;2022-11-18T02:01:23;98763.88;;;6.14;85.01
75609;BME280;64194;51.044;13.780;2022-11-18T02:05:25;98769.78;;;6.18;84.72
75609;BME280;64194;51.044;13.780;2022-11-18T02:09:26;98772.22;;;6.21;85.41
75609;BME280;64194;51.044;13.780;2022-11-18T02:13:28;98762.09;;;6.27;84.47
75609;BME280;64194;51.044;13.780;2022-11-18T02:17:44;98767.16;;;6.30;84.12
75609;BME280;64194;51.044;13.780;2022-11-18T02:26:23;98758.84;;;6.37;84.30
75609;BME280;64194;51.044;13.780;2022-11-18T02:30:31;98757.25;;;6.34;84.40
75609;BME280;64194;51.044;13.780;2022-11-18T02:38:54;98755.75;;;6.55;83.82
75609;BME280;64194;51.044;13.780;2022-11-18T02:43:05;98747.75;;;6.44;82.12
75609;BME280;64194;51.044;13.780;2022-11-18T02:47:10;98755.56;;;6.33;82.10
75609;BME280;64194;51.044;13.780;2022-11-18T02:51:17;98762.22;;;6.26;82.07
75609;BME280;64194;51.044;13.780;2022-11-18T02:55:22;98754.72;;;6.20;82.93
75609;BME280;64194;51.044;13.780;2022-11-18T02:59:27;98756.84;;;6.15;84.35
75609;BME280;64194;51.044;13.780;2022-11-18T03:03:31;98759.66;;;6.12;84.71
75609;BME280;64194;51.044;13.780;2022-11-18T03:07:34;98752.63;;;6.25;85.26
75609;BME280;64194;51.044;13.780;2022-11-18T03:11:58;98754.59;;;6.34;84.89
75609;BME280;64194;51.044;13.780;2022-11-18T03:16:06;98749.25;;;6.36;84.11
75609;BME280;64194;51.044;13.780;2022-11-18T03:20:17;98759.69;;;6.37;84.15
75609;BME280;64194;51.044;13.780;2022-11-18T03:24:29;98754.41;;;6.50;83.18
75609;BME280;64194;51.044;13.780;2022-11-18T03:32:55;98765.47;;;6.67;81.84
75609;BME280;64194;51.044;13.780;2022-11-18T03:37:00;98763.28;;;6.49;83.26
75609;BME280;64194;51.044;13.780;2022-11-18T03:41:10;98760.22;;;6.42;84.49
75609;BME280;64194;51.044;13.780;2022-11-18T03:49:25;98778.56;;;6.69;83.67
75609;BME280;64194;51.044;13.780;2022-11-18T03:53:31;98778.34;;;6.59;83.72
75609;BME280;64194;51.044;13.780;2022-11-18T03:57:50;98782.38;;;6.65;84.14
75609;BME280;64194;51.044;13.780;2022-11-18T04:02:00;98791.13;;;6.65;82.74
75609;BME280;64194;51.044;13.780;2022-11-18T04:06:10;98789.84;;;6.58;81.64
75609;BME280;64194;51.044;13.780;2022-11-18T04:10:19;98795.44;;;6.54;81.84
75609;BME280;64194;51.044;13.780;2022-11-18T04:14:21;98790.59;;;6.48;81.92
75609;BME280;64194;51.044;13.780;2022-11-18T04:18:22;98787.84;;;6.49;81.41
75609;BME280;64194;51.044;13.780;2022-11-18T04:22:24;98796.19;;;6.43;81.57
75609;BME280;64194;51.044;13.780;2022-11-18T04:26:25;98797.75;;;6.46;81.51
75609;BME280;64194;51.044;13.780;2022-11-18T04:30:27;98802.84;;;6.49;81.10
75609;BME280;64194;51.044;13.780;2022-11-18T04:34:29;98802.63;;;6.52;80.60
75609;BME280;64194;51.044;13.780;2022-11-18T04:38:31;98797.22;;;6.41;80.44
75609;BME280;64194;51.044;13.780;2022-11-18T04:42:32;98800.28;;;6.35;80.17
75609;BME280;64194;51.044;13.780;2022-11-18T04:46:34;98794.97;;;6.22;80.74
75609;BME280;64194;51.044;13.780;2022-11-18T04:50:35;98805.97;;;6.16;81.07
75609;BME280;64194;51.044;13.780;2022-11-18T04:54:37;98807.03;;;6.26;80.93
75609;BME280;64194;51.044;13.780;2022-11-18T04:58:38;98801.31;;;6.19;81.02
75609;BME280;64194;51.044;13.780;2022-11-18T05:02:40;98805.75;;;6.19;79.88
75609;BME280;64194;51.044;13.780;2022-11-18T05:06:42;98813.56;;;6.20;80.43
75609;BME280;64194;51.044;13.780;2022-11-18T05:10:43;98810.25;;;6.17;78.71
75609;BME280;64194;51.044;13.780;2022-11-18T05:14:45;98813.94;;;6.02;78.05
75609;BME280;64194;51.044;13.780;2022-11-18T05:18:51;98823.31;;;5.79;78.72
75609;BME280;64194;51.044;13.780;2022-11-18T05:22:53;98818.50;;;5.85;79.09
75609;BME280;64194;51.044;13.780;2022-11-18T05:26:54;98813.31;;;5.84;79.31
75609;BME280;64194;51.044;13.780;2022-11-18T05:30:56;98818.03;;;5.79;79.74
75609;BME280;64194;51.044;13.780;2022-11-18T05:34:57;98832.81;;;5.81;79.05
75609;BME280;64194;51.044;13.780;2022-11-18T05:38:59;98834.91;;;5.76;78.56
75609;BME280;64194;51.044;13.780;2022-11-18T05:43:01;98843.16;;;5.84;79.50
75609;BME280;64194;51.044;13.780;2022-11-18T05:47:12;98841.22;;;5.88;78.82
75609;BME280;64194;51.044;13.780;2022-11-18T05:51:13;98836.78;;;5.74;77.28
75609;BME280;64194;51.044;13.780;2022-11-18T05:55:16;98850.19;;;5.57;78.21
75609;BME280;64194;51.044;13.780;2022-11-18T05:59:19;98858.09;;;5.57;78.85
75609;BME280;64194;51.044;13.780;2022-11-18T06:03:25;98868.44;;;5.60;77.80
75609;BME280;64194;51.044;13.780;2022-11-18T06:07:38;98878.22;;;5.58;78.21
75609;BME280;64194;51.044;13.780;2022-11-18T06:11:44;98884.34;;;5.59;76.93
75609;BME280;64194;51.044;13.780;2022-11-18T06:15:47;98895.66;;;5.46;78.34
75609;BME280;64194;51.044;13.780;2022-11-18T06:19:49;98889.44;;;5.47;78.08
75609;BME280;64194;51.044;13.780;2022-11-18T06:23:52;98896.56;;;5.45;78.20
75609;BME280;64194;51.044;13.780;2022-11-18T06:27:56;98892.34;;;5.57;78.15
75609;BME280;64194;51.044;13.780;2022-11-18T06:31:59;98892.78;;;5.64;76.81
75609;BME280;64194;51.044;13.780;2022-11-18T06:36:01;98896.69;;;5.44;78.72
75609;BME280;64194;51.044;13.780;2022-11-18T06:40:03;98914.00;;;5.48;78.47
75609;BME280;64194;51.044;13.780;2022-11-18T06:44:05;98911.34;;;5.48;78.50
75609;BME280;64194;51.044;13.780;2022-11-18T06:48:06;98917.38;;;5.50;77.70
75609;BME280;64194;51.044;13.780;2022-11-18T06:52:08;98922.47;;;5.39;79.13
75609;BME280;64194;51.044;13.780;2022-11-18T06:56:11;98930.47;;;5.37;79.44
75609;BME280;64194;51.044;13.780;2022-11-18T07:00:14;98945.78;;;5.45;78.94
75609;BME280;64194;51.044;13.780;2022-11-18T07:04:16;98947.44;;;5.46;78.53
75609;BME280;64194;51.044;13.780;2022-11-18T07:08:18;98942.59;;;5.40;79.83
75609;BME280;64194;51.044;13.780;2022-11-18T07:12:19;98953.31;;;5.37;78.24
75609;BME280;64194;51.044;13.780;2022-11-18T07:16:23;98956.78;;;5.23;79.12
75609;BME280;64194;51.044;13.780;2022-11-18T07:20:25;98964.38;;;5.14;77.51
75609;BME280;64194;51.044;13.780;2022-11-18T07:24:27;98958.34;;;4.83;79.70
75609;BME280;64194;51.044;13.780;2022-11-18T07:28:28;98973.31;;;4.67;79.94
75609;BME280;64194;51.044;13.780;2022-11-18T07:33:04;98979.13;;;4.58;78.99
75609;BME280;64194;51.044;13.780;2022-11-18T07:41:58;98976.22;;;4.62;77.77
75609;BME280;64194;51.044;13.780;2022-11-18T07:46:28;98976.03;;;4.66;78.30
75609;BME280;64194;51.044;13.780;2022-11-18T07:50:30;98990.81;;;4.68;77.59
75609;BME280;64194;51.044;13.780;2022-11-18T07:54:32;98983.66;;;4.70;76.14
75609;BME280;64194;51.044;13.780;2022-11-18T07:58:34;98991.47;;;4.42;77.43
75609;BME280;64194;51.044;13.780;2022-11-18T08:02:36;98993.72;;;4.48;77.67
75609;BME280;64194;51.044;13.780;2022-11-18T08:06:38;98995.09;;;4.39;76.91
75609;BME280;64194;51.044;13.780;2022-11-18T08:10:40;99010.03;;;4.23;77.19
75609;BME280;64194;51.044;13.780;2022-11-18T08:14:41;99009.63;;;4.31;77.39
75609;BME280;64194;51.044;13.780;2022-11-18T08:18:43;99011.47;;;4.29;76.71
75609;BME280;64194;51.044;13.780;2022-11-18T08:22:45;99008.31;;;4.38;75.94
75609;BME280;64194;51.044;13.780;2022-11-18T08:26:48;99015.84;;;4.44;76.43
75609;BME280;64194;51.044;13.780;2022-11-18T08:30:50;99017.97;;;4.37;75.71
75609;BME280;64194;51.044;13.780;2022-11-18T08:34:51;99017.84;;;4.25;76.95
75609;BME280;64194;51.044;13.780;2022-11-18T08:38:54;99020.38;;;4.26;75.19
75609;BME280;64194;51.044;13.780;2022-11-18T08:42:56;99032.25;;;4.17;76.43
75609;BME280;64194;51.044;13.780;2022-11-18T08:46:58;99032.25;;;4.17;76.07
75609;BME280;64194;51.044;13.780;2022-11-18T08:51:00;99039.53;;;4.44;75.36
75609;BME280;64194;51.044;13.780;2022-11-18T08:55:03;99035.28;;;4.41;75.27
75609;BME280;64194;51.044;13.780;2022-11-18T08:59:05;99043.16;;;4.57;73.80
75609;BME280;64194;51.044;13.780;2022-11-18T09:03:07;99049.53;;;4.21;74.94
75609;BME280;64194;51.044;13.780;2022-11-18T09:07:08;99046.56;;;3.96;75.71
75609;BME280;64194;51.044;13.780;2022-11-18T09:11:15;99052.81;;;3.78;76.38
75609;BME280;64194;51.044;13.780;2022-11-18T09:15:17;99054.59;;;3.77;77.59
75609;BME280;64194;51.044;13.780;2022-11-18T09:19:19;99074.25;;;3.86;76.42
75609;BME280;64194;51.044;13.780;2022-11-18T09:23:41;99069.81;;;3.71;75.81
75609;BME280;64194;51.044;13.780;2022-11-18T09:27:42;99075.91;;;3.71;75.76
75609;BME280;64194;51.044;13.780;2022-11-18T09:31:44;99080.38;;;3.54;77.63
75609;BME280;64194;51.044;13.780;2022-11-18T09:35:46;99079.28;;;3.58;77.29
75609;BME280;64194;51.044;13.780;2022-11-18T09:39:47;99089.47;;;3.64;76.98
75609;BME280;64194;51.044;13.780;2022-11-18T09:48:25;99098.25;;;3.63;76.70
75609;BME280;64194;51.044;13.780;2022-11-18T09:56:56;99135.81;;;3.48;74.50
75609;BME280;64194;51.044;13.780;2022-11-18T10:00:58;99129.34;;;3.20;75.77
75609;BME280;64194;51.044;13.780;2022-11-18T10:05:12;99129.94;;;3.25;75.23
75609;BME280;64194;51.044;13.780;2022-11-18T10:09:54;99135.81;;;3.13;74.87
75609;BME280;64194;51.044;13.780;2022-11-18T10:18:37;99149.22;;;3.07;77.00
75609;BME280;64194;51.044;13.780;2022-11-18T10:23:25;99143.81;;;3.27;76.82
75609;BME280;64194;51.044;13.780;2022-11-18T10:27:37;99148.16;;;3.46;73.93
75609;BME280;64194;51.044;13.780;2022-11-18T10:31:52;99158.31;;;3.17;74.72
75609;BME280;64194;51.044;13.780;2022-11-18T10:40:23;99165.13;;;3.21;75.29
75609;BME280;64194;51.044;13.780;2022-11-18T10:44:37;99170.69;;;3.15;74.39
75609;BME280;64194;51.044;13.780;2022-11-18T10:48:38;99171.91;;;3.08;74.58
75609;BME280;64194;51.044;13.780;2022-11-18T10:52:51;99180.81;;;2.87;74.99
75609;BME280;64194;51.044;13.780;2022-11-18T11:01:27;99193.38;;;2.62;78.14
75609;BME280;64194;51.044;13.780;2022-11-18T11:05:29;99196.25;;;2.74;76.85
75609;BME280;64194;51.044;13.780;2022-11-18T11:09:31;99207.19;;;2.65;78.49
75609;BME280;64194;51.044;13.780;2022-11-18T11:13:36;99206.00;;;2.72;75.63
75609;BME280;64194;51.044;13.780;2022-11-18T11:17:55;99205.03;;;2.73;76.83
75609;BME280;64194;51.044;13.780;2022-11-18T11:22:17;99216.25;;;2.77;75.58
75609;BME280;64194;51.044;13.780;2022-11-18T11:26:44;99222.06;;;2.65;73.83
75609;BME280;64194;51.044;13.780;2022-11-18T11:35:22;99226.88;;;2.74;77.18
75609;BME280;64194;51.044;13.780;2022-11-18T12:06:18;99247.75;;;3.49;73.63
75609;BME280;64194;51.044;13.780;2022-11-18T12:19:37;99254.78;;;3.65;70.57
75609;BME280;64194;51.044;13.780;2022-11-18T12:28:39;99266.09;;;3.31;71.55
75609;BME280;64194;51.044;13.780;2022-11-18T12:32:43;99263.53;;;3.11;71.82
75609;BME280;64194;51.044;13.780;2022-11-18T12:36:48;99267.75;;;2.97;73.90
75609;BME280;64194;51.044;13.780;2022-11-18T12:45:54;99282.84;;;2.91;73.41
75609;BME280;64194;51.044;13.780;2022-11-18T12:50:45;99295.03;;;2.74;71.82
75609;BME280;64194;51.044;13.780;2022-11-18T12:54:47;99292.63;;;2.50;72.69
75609;BME280;64194;51.044;13.780;2022-11-18T12:58:53;99297.41;;;2.41;72.72
75609;BME280;64194;51.044;13.780;2022-11-18T13:02:58;99300.44;;;2.32;73.36
75609;BME280;64194;51.044;13.780;2022-11-18T13:07:31;99311.81;;;2.31;75.06
75609;BME280;64194;51.044;13.780;2022-11-18T13:12:18;99308.06;;;2.18;73.92
75609;BME280;64194;51.044;13.780;2022-11-18T13:16:22;99309.03;;;2.15;76.01
75609;BME280;64194;51.044;13.780;2022-11-18T13:20:53;99313.84;;;2.24;74.12
75609;BME280;64194;51.044;13.780;2022-11-18T13:24:55;99316.69;;;1.99;75.23
75609;BME280;64194;51.044;13.780;2022-11-18T13:33:54;99335.31;;;1.92;77.82
75609;BME280;64194;51.044;13.780;2022-11-18T13:38:01;99348.50;;;1.90;75.75
75609;BME280;64194;51.044;13.780;2022-11-18T13:42:05;99345.09;;;1.66;76.75
75609;BME280;64194;51.044;13.780;2022-11-18T13:46:12;99355.94;;;1.36;79.25
75609;BME280;64194;51.044;13.780;2022-11-18T13:54:25;99366.03;;;1.23;80.83
75609;BME280;64194;51.044;13.780;2022-11-18T14:08:45;99399.63;;;1.55;78.44
75609;BME280;64194;51.044;13.780;2022-11-18T14:12:56;99395.88;;;1.62;73.40
75609;BME280;64194;51.044;13.780;2022-11-18T14:17:25;99412.41;;;1.18;74.60
75609;BME280;64194;51.044;13.780;2022-11-18T14:26:25;99419.22;;;0.99;71.70
75609;BME280;64194;51.044;13.780;2022-11-18T14:44:18;99427.94;;;0.99;73.85
75609;BME280;64194;51.044;13.780;2022-11-18T14:48:21;99428.75;;;1.24;71.94
75609;BME280;64194;51.044;13.780;2022-11-18T14:52:55;99436.41;;;1.29;72.76
75609;BME280;64194;51.044;13.780;2022-11-18T14:57:30;99436.50;;;1.49;70.66
75609;BME280;64194;51.044;13.780;2022-11-18T15:01:32;99458.69;;;1.39;70.53
75609;BME280;64194;51.044;13.780;2022-11-18T15:05:34;99453.81;;;1.30;68.83
75609;BME280;64194;51.044;13.780;2022-11-18T15:20:52;99478.47;;;1.23;70.98
75609;BME280;64194;51.044;13.780;2022-11-18T15:25:19;99494.41;;;1.40;70.40
75609;BME280;64194;51.044;13.780;2022-11-18T15:29:45;99479.50;;;1.42;67.53
75609;BME280;64194;51.044;13.780;2022-11-18T15:33:47;99478.44;;;1.24;68.57
75609;BME280;64194;51.044;13.780;2022-11-18T15:47:34;99499.88;;;1.09;68.87
75609;BME280;64194;51.044;13.780;2022-11-18T15:56:31;99513.97;;;1.05;68.58
75609;BME280;64194;51.044;13.780;2022-11-18T16:00:34;99521.69;;;0.85;70.74
75609;BME280;64194;51.044;13.780;2022-11-18T16:04:36;99533.84;;;0.86;71.77
75609;BME280;64194;51.044;13.780;2022-11-18T16:08:37;99535.66;;;1.09;72.81
75609;BME280;64194;51.044;13.780;2022-11-18T16:12:39;99546.22;;;1.06;69.78
75609;BME280;64194;51.044;13.780;2022-11-18T16:16:50;99554.06;;;1.06;70.13
75609;BME280;64194;51.044;13.780;2022-11-18T16:25:43;99559.25;;;1.07;70.32
75609;BME280;64194;51.044;13.780;2022-11-18T16:29:46;99568.97;;;0.77;72.12
75609;BME280;64194;51.044;13.780;2022-11-18T16:33:48;99573.41;;;0.75;73.58
75609;BME280;64194;51.044;13.780;2022-11-18T16:37:49;99580.56;;;0.95;71.69
75609;BME280;64194;51.044;13.780;2022-11-18T16:41:56;99582.72;;;0.82;71.88
75609;BME280;64194;51.044;13.780;2022-11-18T16:46:07;99590.56;;;0.82;71.98
75609;BME280;64194;51.044;13.780;2022-11-18T16:50:12;99608.16;;;0.77;71.22
75609;BME280;64194;51.044;13.780;2022-11-18T16:54:25;99601.38;;;0.72;72.76
75609;BME280;64194;51.044;13.780;2022-11-18T16:58:27;99603.84;;;0.76;71.63
75609;BME280;64194;51.044;13.780;2022-11-18T17:02:29;99612.97;;;0.65;71.57
75609;BME280;64194;51.044;13.780;2022-11-18T17:06:30;99610.69;;;0.54;70.39
75609;BME280;64194;51.044;13.780;2022-11-18T17:10:33;99621.34;;;0.48;72.53
75609;BME280;64194;51.044;13.780;2022-11-18T17:14:35;99623.94;;;0.48;70.65
75609;BME280;64194;51.044;13.780;2022-11-18T17:18:39;99628.66;;;0.37;70.67
75609;BME280;64194;51.044;13.780;2022-11-18T17:22:41;99626.94;;;0.36;72.51
75609;BME280;64194;51.044;13.780;2022-11-18T17:26:43;99636.28;;;0.43;71.19
75609;BME280;64194;51.044;13.780;2022-11-18T17:30:44;99646.09;;;0.35;70.62
75609;BME280;64194;51.044;13.780;2022-11-18T17:34:50;99653.75;;;0.41;69.63
75609;BME280;64194;51.044;13.780;2022-11-18T17:38:54;99643.50;;;0.35;70.72
75609;BME280;64194;51.044;13.780;2022-11-18T17:42:55;99661.28;;;0.22;70.94
75609;BME280;64194;51.044;13.780;2022-11-18T17:46:57;99682.94;;;0.26;69.69
75609;BME280;64194;51.044;13.780;2022-11-18T17:51:03;99675.91;;;0.28;69.57
75609;BME280;64194;51.044;13.780;2022-11-18T17:55:06;99676.19;;;0.19;71.20
75609;BME280;64194;51.044;13.780;2022-11-18T17:59:07;99675.91;;;0.28;69.85
75609;BME280;64194;51.044;13.780;2022-11-18T18:03:10;99691.84;;;0.19;69.77
75609;BME280;64194;51.044;13.780;2022-11-18T18:07:11;99682.38;;;0.16;69.29
75609;BME280;64194;51.044;13.780;2022-11-18T18:11:17;99688.38;;;0.18;69.60
75609;BME280;64194;51.044;13.780;2022-11-18T18:15:19;99694.41;;;0.22;66.82
75609;BME280;64194;51.044;13.780;2022-11-18T18:19:22;99704.84;;;0.22;68.42
75609;BME280;64194;51.044;13.780;2022-11-18T18:23:23;99698.69;;;0.23;68.15
75609;BME280;64194;51.044;13.780;2022-11-18T18:27:29;99706.50;;;0.24;67.31
75609;BME280;64194;51.044;13.780;2022-11-18T18:31:33;99688.22;;;0.24;67.80
75609;BME280;64194;51.044;13.780;2022-11-18T18:35:39;99691.66;;;0.26;69.50
75609;BME280;64194;51.044;13.780;2022-11-18T18:39:41;99708.97;;;0.29;68.23
75609;BME280;64194;51.044;13.780;2022-11-18T18:43:44;99721.97;;;0.30;67.36
75609;BME280;64194;51.044;13.780;2022-11-18T18:47:46;99719.38;;;0.30;67.56
75609;BME280;64194;51.044;13.780;2022-11-18T18:51:48;99709.13;;;0.23;67.72
75609;BME280;64194;51.044;13.780;2022-11-18T19:01:50;99724.41;;;0.06;68.64
75609;BME280;64194;51.044;13.780;2022-11-18T19:05:51;99745.97;;;0.14;69.19
75609;BME280;64194;51.044;13.780;2022-11-18T19:10:13;99743.03;;;0.24;68.29
75609;BME280;64194;51.044;13.780;2022-11-18T19:14:17;99743.59;;;0.35;67.82
75609;BME280;64194;51.044;13.780;2022-11-18T19:18:20;99743.31;;;0.45;66.86
75609;BME280;64194;51.044;13.780;2022-11-18T19:22:24;99740.97;;;0.35;66.44
75609;BME280;64194;51.044;13.780;2022-11-18T19:26:28;99754.03;;;0.35;66.02
75609;BME280;64194;51.044;13.780;2022-11-18T19:30:30;99755.78;;;0.35;66.86
75609;BME280;64194;51.044;13.780;2022-11-18T19:34:32;99750.53;;;0.36;66.17
75609;BME280;64194;51.044;13.780;2022-11-18T19:38:34;99759.56;;;0.25;65.64
75609;BME280;64194;51.044;13.780;2022-11-18T19:42:36;99756.31;;;0.17;66.23
75609;BME280;64194;51.044;13.780;2022-11-18T19:46:38;99763.06;;;0.24;67.06
75609;BME280;64194;51.044;13.780;2022-11-18T19:50:40;99773.75;;;0.47;66.89
75609;BME280;64194;51.044;13.780;2022-11-18T19:54:41;99766.84;;;0.45;65.75
75609;BME280;64194;51.044;13.780;2022-11-18T19:58:43;99769.34;;;0.49;66.05
75609;BME280;64194;51.044;13.780;2022-11-18T20:02:46;99771.81;;;0.54;65.78
75609;BME280;64194;51.044;13.780;2022-11-18T20:06:48;99778.78;;;0.53;64.98
75609;BME280;64194;51.044;13.780;2022-11-18T20:10:51;99786.88;;;0.44;64.40
75609;BME280;64194;51.044;13.780;2022-11-18T20:14:52;99790.31;;;0.46;64.51
75609;BME280;64194;51.044;13.780;2022-11-18T20:18:56;99788.66;;;0.44;65.29
75609;BME280;64194;51.044;13.780;2022-11-18T20:22:58;99795.31;;;0.23;66.55
75609;BME280;64194;51.044;13.780;2022-11-18T20:27:00;99791.53;;;0.33;65.37
75609;BME280;64194;51.044;13.780;2022-11-18T20:31:03;99792.03;;;0.47;64.58
75609;BME280;64194;51.044;13.780;2022-11-18T20:35:05;99804.19;;;0.48;65.61
75609;BME280;64194;51.044;13.780;2022-11-18T20:39:13;99807.59;;;0.50;64.92
75609;BME280;64194;51.044;13.780;2022-11-18T20:43:16;99818.47;;;0.35;65.99
75609;BME280;64194;51.044;13.780;2022-11-18T20:47:17;99801.91;;;0.36;66.33
75609;BME280;64194;51.044;13.780;2022-11-18T20:51:21;99810.31;;;0.47;65.15
75609;BME280;64194;51.044;13.780;2022-11-18T20:55:23;99802.63;;;0.41;65.63
75609;BME280;64194;51.044;13.780;2022-11-18T20:59:25;99821.22;;;0.30;65.65
75609;BME280;64194;51.044;13.780;2022-11-18T21:03:27;99831.84;;;0.24;66.95
75609;BME280;64194;51.044;13.780;2022-11-18T21:07:31;99820.38;;;0.30;66.63
75609;BME280;64194;51.044;13.780;2022-11-18T21:11:35;99832.25;;;0.40;67.13
75609;BME280;64194;51.044;13.780;2022-11-18T21:15:37;99828.66;;;0.44;66.59
75609;BME280;64194;51.044;13.780;2022-11-18T21:19:40;99834.66;;;0.49;66.30
75609;BME280;64194;51.044;13.780;2022-11-18T21:23:47;99827.59;;;0.51;65.83
75609;BME280;64194;51.044;13.780;2022-11-18T21:27:49;99815.88;;;0.35;66.25
75609;BME280;64194;51.044;13.780;2022-11-18T21:31:52;99822.88;;;0.33;66.47
75609;BME280;64194;51.044;13.780;2022-11-18T21:35:57;99825.84;;;0.52;66.22
75609;BME280;64194;51.044;13.780;2022-11-18T21:39:59;99828.94;;;0.35;67.24
75609;BME280;64194;51.044;13.780;2022-11-18T21:44:03;99838.47;;;0.36;67.41
75609;BME280;64194;51.044;13.780;2022-11-18T21:48:06;99847.25;;;0.33;67.60
75609;BME280;64194;51.044;13.780;2022-11-18T21:52:09;99861.00;;;0.40;66.95
75609;BME280;64194;51.044;13.780;2022-11-18T21:56:18;99865.50;;;0.35;66.85
75609;BME280;64194;51.044;13.780;2022-11-18T22:00:25;99864.63;;;0.34;67.65
75609;BME280;64194;51.044;13.780;2022-11-18T22:04:26;99859.53;;;0.30;67.59
75609;BME280;64194;51.044;13.780;2022-11-18T22:08:47;99852.03;;;0.18;67.37
75609;BME280;64194;51.044;13.780;2022-11-18T22:12:49;99854.16;;;0.04;68.35
75609;BME280;64194;51.044;13.780;2022-11-18T22:16:52;99865.47;;;0.03;68.99
75609;BME280;64194;51.044;13.780;2022-11-18T22:21:02;99871.69;;;-0.02;68.18
75609;BME280;64194;51.044;13.780;2022-11-18T22:25:05;99870.84;;;-0.04;68.36
75609;BME280;64194;51.044;13.780;2022-11-18T22:29:06;99872.44;;;0.02;68.77
75609;BME280;64194;51.044;13.780;2022-11-18T22:33:08;99888.75;;;-0.22;69.16
75609;BME280;64194;51.044;13.780;2022-11-18T22:37:10;99895.03;;;-0.31;70.37
75609;BME280;64194;51.044;13.780;2022-11-18T22:41:18;99895.03;;;-0.32;70.47
75609;BME280;64194;51.044;13.780;2022-11-18T22:45:39;99889.88;;;-0.34;70.37
75609;BME280;64194;51.044;13.780;2022-11-18T22:49:41;99895.38;;;-0.46;70.03
75609;BME280;64194;51.044;13.780;2022-11-18T22:53:43;99885.25;;;-0.60;71.33
75609;BME280;64194;51.044;13.780;2022-11-18T22:57:44;99894.59;;;-0.50;71.70
75609;BME280;64194;51.044;13.780;2022-11-18T23:01:46;99900.50;;;-0.42;71.28
75609;BME280;64194;51.044;13.780;2022-11-18T23:05:48;99905.59;;;-0.37;70.18
75609;BME280;64194;51.044;13.780;2022-11-18T23:09:49;99909.03;;;-0.35;68.96
75609;BME280;64194;51.044;13.780;2022-11-18T23:13:51;99912.13;;;-0.55;69.80
75609;BME280;64194;51.044;13.780;2022-11-18T23:18:04;99918.31;;;-0.60;69.30
75609;BME280;64194;51.044;13.780;2022-11-18T23:22:12;99925.44;;;-0.68;70.34
75609;BME280;64194;51.044;13.780;2022-11-18T23:26:15;99941.88;;;-1.05;70.58
75609;BME280;64194;51.044;13.780;2022-11-18T23:30:17;99936.38;;;-0.93;70.79
75609;BME280;64194;51.044;13.780;2022-11-18T23:34:19;99947.75;;;-0.97;70.54
75609;BME280;64194;51.044;13.780;2022-11-18T23:38:20;99948.91;;;-1.10;71.56
75609;BME280;64194;51.044;13.780;2022-11-18T23:42:22;99943.63;;;-1.07;70.64
75609;BME280;64194;51.044;13.780;2022-11-18T23:46:24;99947.88;;;-1.03;71.04
75609;BME280;64194;51.044;13.780;2022-11-18T23:50:27;99950.41;;;-0.98;71.38
75609;BME280;64194;51.044;13.780;2022-11-18T23:54:29;99949.72;;;-1.06;70.45
75609;BME280;64194;51.044;13.780;2022-11-18T23:58:30;99952.53;;;-1.17;71.96
